ADDS METAR Data INFO
IDs: Format: Raw Decoded Include TAF

Data at: 1505 UTC 23 Oct 2017

KAKH 231454Z AUTO VRB05G15KT 10SM OVC005 22/21 A3000 RMK AO2 RAE12B19E33 CIG 004V009 SLP153 P0002 60002 T02170206 58018
KAKH 231435Z AUTO 16009G14KT 140V200 6SM BR OVC005 21/21 A3002 RMK AO2 RAE12B19E33 P0002 T02110206
KAKH 231428Z AUTO 16007KT 140V210 2 1/2SM -RA BR OVC005 21/21 A3002 RMK AO2 RAE12B19 P0002 T02110206
KAKH 231415Z AUTO 14007KT 120V180 6SM BR OVC005 21/21 A3002 RMK AO2 RAE12 P0001 T02110206
KAKH 231354Z AUTO 15006KT 7SM -RA OVC003 21/20 A3003 RMK AO2 RAB14E30B46 CIG 003V007 SLP163 P0000 T02110200
KAKH 231254Z AUTO 15008KT 120V200 5SM BR OVC003 21/20 A3005 RMK AO2 RAE00 SLP169 P0000 T02060200
KAKH 231247Z AUTO 14007KT 100V180 4SM BR OVC003 21/20 A3005 RMK AO2 RAE00 P0000 T02060200
KAKH 231218Z AUTO 15009G17KT 2SM BR OVC003 20/19 A3005 RMK AO2 RAE00 P0000 T02000194
KAKH 231154Z AUTO 13008G15KT 8SM -RA OVC003 20/19 A3005 RMK AO2 RAB18 SLP172 P0000 60009 70009 T02000194 10211 20183 56020
KAKH 231054Z AUTO 11006KT 10SM OVC004 19/18 A3007 RMK AO2 SLP176 P0001 T01940183 $
KAKH 231024Z AUTO VRB05KT 10SM OVC004 19/18 A3008 RMK AO2 T01940183 $
KAKH 230954Z AUTO 12006G14KT 10SM OVC005 19/18 A3009 RMK AO2 RAE02B12E51 CIG 003V009 SLP185 P0000 T01940183 $
KAKH 230925Z AUTO 10006KT 6SM -RA BR BKN005 OVC011 19/18 A3010 RMK AO2 RAE02B12 CIG 003V007 P0000 T01890178 $
KAKH 230911Z AUTO 11004KT 9SM BKN007 OVC011 18/18 A3011 RMK AO2 RAE02 CIG 005V010 P0000 T01830178 $
KAKH 230854Z AUTO 10003KT 4SM -RA BR BKN013 OVC019 18/18 A3011 RMK AO2 RAB04 SLP191 P0005 60008 T01830178 58019 $
KAKH 230842Z AUTO 00000KT 2 1/2SM -RA BR BKN013 OVC022 18/18 A3012 RMK AO2 RAB04 P0003 T01830178 $
KAKH 230754Z AUTO 09003KT 10SM SCT019 BKN025 OVC042 19/18 A3014 RMK AO2 RAE49 SLP198 P0002 T01890178 $
KAKH 230733Z AUTO 09004KT 5SM -RA BR SCT015 BKN025 OVC031 19/18 A3015 RMK AO2 P0002 T01890178 $
KAKH 230717Z AUTO 10004KT 3SM -RA BR BKN013 BKN020 OVC026 19/18 A3016 RMK AO2 P0001 T01890178 $
KAKH 230710Z AUTO 09003KT 2 1/2SM -RA BR BKN014 BKN018 OVC026 19/18 A3016 RMK AO2 P0001 T01890178 $
KAKH 230702Z AUTO VRB03KT 2 1/2SM -RA BR SCT014 OVC026 19/18 A3016 RMK AO2 P0000 T01890178 $
KAKH 230654Z AUTO 11004KT 3SM -RA BR SCT015 BKN024 OVC034 19/17 A3017 RMK AO2 RAB40 SLP210 P0001 T01940172 $
KAKH 230652Z AUTO VRB03KT 4SM -RA BR SCT017 BKN024 OVC034 19/17 A3017 RMK AO2 RAB40 P0000 $
KAKH 230554Z AUTO 18005KT 10SM BKN039 OVC050 21/17 A3019 RMK AO2 SLP217 60000 T02110167 10228 20206 56017 $
KAKH 230454Z AUTO VRB04KT 10SM OVC046 21/17 A3021 RMK AO2 SLP223 T02110167 402610106 $
KAKH 230354Z AUTO 00000KT 10SM BKN047 BKN055 OVC070 22/17 A3022 RMK AO2 SLP227 T02170167 $
KAKH 230254Z AUTO VRB03KT 10SM SCT033 BKN040 OVC055 22/16 A3024 RMK AO2 RAB21E31 SLP235 P0000 60000 T02170161 51000 $
KAKH 230154Z AUTO 00000KT 10SM OVC042 22/16 A3024 RMK AO2 SLP236 T02220161 $
KAKH 230054Z AUTO 00000KT 10SM OVC050 22/16 A3024 RMK AO2 SLP238 T02220161 $
KAKH 222354Z AUTO 09004KT 10SM OVC060 22/16 A3024 RMK AO2 SLP237 T02220156 10261 20217 53001 $
KAKH 222254Z AUTO 05003KT 10SM FEW050 OVC070 22/16 A3023 RMK AO2 SLP233 T02170161 $
KAKH 222154Z AUTO 08003KT 10SM BKN080 24/15 A3023 RMK AO2 SLP233 T02390150 $
KAKH 222054Z AUTO 11003KT 10SM BKN060 26/14 A3024 RMK AO2 SLP235 T02560139 56017 $
KAKH 221954Z AUTO 06003KT 10SM SCT060 25/14 A3024 RMK AO2 SLP238 T02500139 $
KAKH 221854Z AUTO 09005KT 10SM FEW041 26/14 A3025 RMK AO2 SLP240 T02610139 $
KAKH 221754Z AUTO VRB04KT 10SM SCT038 SCT050 26/15 A3029 RMK AO2 SLP252 T02560150 10261 20117 58022 $
KAKH 221654Z AUTO 08005KT 10SM FEW038 SCT050 24/14 A3032 RMK AO2 SLP265 T02390144 $
KAKH 221554Z AUTO VRB03KT 10SM CLR 23/16 A3034 RMK AO2 SLP269 T02330156 $
KAKH 221454Z AUTO 10004KT 10SM CLR 21/15 A3036 RMK AO2 SLP276 T02060150 50003 $
KAKH 221354Z AUTO 03005KT 6SM BR FEW003 17/15 A3036 RMK AO2 SLP278 T01670150 $
KAKH 221351Z AUTO 04005KT 7SM SCT003 17/15 A3036 RMK AO2 $
KAKH 221324Z AUTO 03003KT 6SM BR BKN003 16/14 A3036 RMK AO2 T01560144 $
KAKH 221254Z AUTO 36003KT 6SM BR FEW002 15/13 A3035 RMK AO2 SLP275 T01500133 $
KAKH 221211Z AUTO 36004KT 5SM BR BKN004 12/12 A3034 RMK AO2 T01220117 $
KAKH 221204Z AUTO 01003KT 4SM BR SCT005 12/11 A3034 RMK AO2 T01170111 $
KAKH 221154Z AUTO 36004KT 4SM BR CLR 12/11 A3034 RMK AO2 SLP272 T01170106 10133 20106 53009 $
KAKH 221054Z AUTO 00000KT 4SM BR CLR 11/10 A3032 RMK AO2 SLP266 T01110100 $
KAKH 220954Z AUTO 00000KT 3SM BR CLR 12/11 A3031 RMK AO2 SLP263 T01170106 $
KAKH 220941Z AUTO 00000KT 2 1/2SM BR CLR 12/11 A3032 RMK AO2 T01170106 $
KAKH 220854Z AUTO 00000KT 4SM BR CLR 12/11 A3031 RMK AO2 SLP260 T01170111 58002 $
KAKH 220841Z AUTO 00000KT 4SM BR CLR 12/11 A3031 RMK AO2 T01170106 $
KAKH 220834Z AUTO 00000KT 2SM BR CLR 12/11 A3031 RMK AO2 T01170106 $
KAKH 220828Z AUTO 00000KT 3/4SM BR CLR 12/11 A3031 RMK AO2 VIS 1/4V4 T01170111 $
KAKH 220821Z AUTO 00000KT 1SM BR CLR 12/11 A3031 RMK AO2 T01170111 $
KAKH 220811Z AUTO 00000KT 3SM BR CLR 12/11 A3031 RMK AO2 T01220111 $
KAKH 220757Z AUTO 00000KT 1 1/2SM BR CLR 12/11 A3031 RMK AO2 T01220111 $
KAKH 220754Z AUTO 00000KT 4SM BR CLR 12/11 A3031 RMK AO2 SLP260 T01220111 $
KAKH 220654Z AUTO 00000KT 5SM BR CLR 13/11 A3032 RMK AO2 SLP263 T01280111 $
KAKH 220554Z AUTO 00000KT 8SM CLR 13/12 A3032 RMK AO2 SLP262 T01280117 10178 20128 55004 $
KAKH 220454Z AUTO 00000KT 9SM CLR 14/12 A3031 RMK AO2 SLP261 T01390117 402610100 $
KAKH 220354Z AUTO 00000KT 9SM CLR 14/12 A3032 RMK AO2 SLP264 T01440122 $